KBCE

Bryce Canyon Airport

Bryce Canyon, Utah, USA
KBCE 210546Z 2106/2206 28006KT P6SM SCT080 BKN150 FM211800 30010KT P6SM VCTS SCT080CB BKN120 FM212300 29008KT P6SM SCT100 BKN150
Issued Valid From Valid To
Jul-21 @ 05:46 UTC
(4 hours ago)
Jul-21 @ 06:00 UTC
(4 hours ago)
Jul-22 @ 06:00 UTC
(in 20 hours)
Jul-21 @ 06:00 to Jul-21 @ 18:00
KBCE 210546Z 2106/2206 28006KT P6SM SCT080 BKN150
Wind Visibility Clouds
280° at 6 knots Greater than 6 miles
  • Scattered at 8,000' AGL
  • Broken at 15,000' AGL
From Jul-21 @ 18:00 to Jul-21 @ 23:00
FM211800 30010KT P6SM VCTS SCT080CB BKN120
Wind Visibility Clouds Conditions
300° at 10 knots Greater than 6 miles
  • Scattered at 8,000' AGL
  • Broken at 12,000' AGL
  • Area Thunderstorm
From Jul-21 @ 23:00 to Jul-22 @ 06:00
FM212300 29008KT P6SM SCT100 BKN150
Wind Visibility Clouds
290° at 8 knots Greater than 6 miles
  • Scattered at 10,000' AGL
  • Broken at 15,000' AGL
KBCE 210546Z 2106/2206 28006KT P6SM SCT080 BKN150 FM211800 30010KT P6SM VCTS SCT080CB BKN120 FM212300 29008KT P6SM SCT100 BKN150
Issued Jul-21 @ 05:46 UTC
(4 hours ago)
Valid From Jul-21 @ 06:00 UTC
(4 hours ago)
Valid To Jul-22 @ 06:00 UTC
(in 20 hours)
Jul-21 @ 06:00 - Jul-21 @ 18:00
Wind Visibility
280° at 6 knots Greater than 6 miles
Clouds
  • Scattered at 8,000' AGL
  • Broken at 15,000' AGL
From Jul-21 @ 18:00 - Jul-21 @ 23:00
Wind Visibility
300° at 10 knots Greater than 6 miles
Clouds
  • Scattered at 8,000' AGL
  • Broken at 12,000' AGL
Conditions
  • Area Thunderstorm
From Jul-21 @ 23:00 - Jul-22 @ 06:00
Wind Visibility
290° at 8 knots Greater than 6 miles
Clouds
  • Scattered at 10,000' AGL
  • Broken at 15,000' AGL